sensor_id;sensor_type;location;lat;lon;timestamp;temperature;humidity
10344;DHT22;5217;43.960;10.954;2022-11-20T00:01:30;15.90;99.90
10344;DHT22;5217;43.960;10.954;2022-11-20T00:03:58;15.90;99.90
10344;DHT22;5217;43.960;10.954;2022-11-20T00:06:28;15.90;99.90
10344;DHT22;5217;43.960;10.954;2022-11-20T00:08:58;15.90;99.90
10344;DHT22;5217;43.960;10.954;2022-11-20T00:11:30;15.90;99.90
10344;DHT22;5217;43.960;10.954;2022-11-20T00:14:01;15.90;99.90
10344;DHT22;5217;43.960;10.954;2022-11-20T00:16:31;15.90;99.90
10344;DHT22;5217;43.960;10.954;2022-11-20T00:19:00;15.80;99.90
10344;DHT22;5217;43.960;10.954;2022-11-20T00:21:29;15.90;99.90
10344;DHT22;5217;43.960;10.954;2022-11-20T00:23:58;15.80;99.90
10344;DHT22;5217;43.960;10.954;2022-11-20T00:26:28;15.80;99.90
10344;DHT22;5217;43.960;10.954;2022-11-20T00:28:58;15.80;99.90
10344;DHT22;5217;43.960;10.954;2022-11-20T00:31:27;15.80;99.90
10344;DHT22;5217;43.960;10.954;2022-11-20T00:33:56;15.80;99.90
10344;DHT22;5217;43.960;10.954;2022-11-20T00:36:26;15.80;99.90
10344;DHT22;5217;43.960;10.954;2022-11-20T00:38:56;15.80;99.90
10344;DHT22;5217;43.960;10.954;2022-11-20T00:41:27;15.80;99.90
10344;DHT22;5217;43.960;10.954;2022-11-20T00:43:56;15.80;99.90
10344;DHT22;5217;43.960;10.954;2022-11-20T00:46:26;15.80;99.90
10344;DHT22;5217;43.960;10.954;2022-11-20T00:48:56;15.80;99.90
10344;DHT22;5217;43.960;10.954;2022-11-20T00:51:25;15.80;99.90
10344;DHT22;5217;43.960;10.954;2022-11-20T00:53:56;15.80;99.90
10344;DHT22;5217;43.960;10.954;2022-11-20T00:56:24;15.80;99.90
10344;DHT22;5217;43.960;10.954;2022-11-20T00:58:54;15.80;99.90
10344;DHT22;5217;43.960;10.954;2022-11-20T01:01:24;15.80;99.90
10344;DHT22;5217;43.960;10.954;2022-11-20T01:03:55;15.80;99.90
10344;DHT22;5217;43.960;10.954;2022-11-20T01:06:25;15.70;99.90
10344;DHT22;5217;43.960;10.954;2022-11-20T01:08:56;15.70;99.90
10344;DHT22;5217;43.960;10.954;2022-11-20T01:11:27;15.70;99.90
10344;DHT22;5217;43.960;10.954;2022-11-20T01:13:59;15.70;99.90
10344;DHT22;5217;43.960;10.954;2022-11-20T01:16:30;15.70;99.90
10344;DHT22;5217;43.960;10.954;2022-11-20T01:19:00;15.70;99.90
10344;DHT22;5217;43.960;10.954;2022-11-20T01:21:30;15.70;99.90
10344;DHT22;5217;43.960;10.954;2022-11-20T01:23:59;15.70;99.90
10344;DHT22;5217;43.960;10.954;2022-11-20T01:26:29;15.70;99.90
10344;DHT22;5217;43.960;10.954;2022-11-20T01:29:01;15.70;99.90
10344;DHT22;5217;43.960;10.954;2022-11-20T01:31:30;15.70;99.90
10344;DHT22;5217;43.960;10.954;2022-11-20T01:34:01;15.70;99.90
10344;DHT22;5217;43.960;10.954;2022-11-20T01:36:31;15.60;99.90
10344;DHT22;5217;43.960;10.954;2022-11-20T01:39:02;15.60;99.90
10344;DHT22;5217;43.960;10.954;2022-11-20T01:41:32;15.60;99.90
10344;DHT22;5217;43.960;10.954;2022-11-20T01:44:21;15.60;99.90
10344;DHT22;5217;43.960;10.954;2022-11-20T01:46:55;15.60;99.90
10344;DHT22;5217;43.960;10.954;2022-11-20T01:49:27;15.60;99.90
10344;DHT22;5217;43.960;10.954;2022-11-20T01:51:59;15.60;99.90
10344;DHT22;5217;43.960;10.954;2022-11-20T01:54:34;15.60;99.90
10344;DHT22;5217;43.960;10.954;2022-11-20T01:57:05;15.60;99.90
10344;DHT22;5217;43.960;10.954;2022-11-20T01:59:41;15.60;99.90
10344;DHT22;5217;43.960;10.954;2022-11-20T02:02:11;15.50;99.90
10344;DHT22;5217;43.960;10.954;2022-11-20T02:04:40;15.50;99.90
10344;DHT22;5217;43.960;10.954;2022-11-20T02:07:08;15.60;99.90
10344;DHT22;5217;43.960;10.954;2022-11-20T02:09:37;15.50;99.90
10344;DHT22;5217;43.960;10.954;2022-11-20T02:12:05;15.60;99.90
10344;DHT22;5217;43.960;10.954;2022-11-20T02:14:56;15.60;99.90
10344;DHT22;5217;43.960;10.954;2022-11-20T02:17:24;15.60;99.90
10344;DHT22;5217;43.960;10.954;2022-11-20T02:19:54;15.60;99.90
10344;DHT22;5217;43.960;10.954;2022-11-20T02:22:26;15.60;99.90
10344;DHT22;5217;43.960;10.954;2022-11-20T02:24:59;15.50;99.90
10344;DHT22;5217;43.960;10.954;2022-11-20T02:27:28;15.50;99.90
10344;DHT22;5217;43.960;10.954;2022-11-20T02:29:59;15.50;99.90
10344;DHT22;5217;43.960;10.954;2022-11-20T02:32:31;15.50;99.90
10344;DHT22;5217;43.960;10.954;2022-11-20T02:35:07;15.40;99.90
10344;DHT22;5217;43.960;10.954;2022-11-20T02:37:39;15.50;99.90
10344;DHT22;5217;43.960;10.954;2022-11-20T02:40:10;15.50;99.90
10344;DHT22;5217;43.960;10.954;2022-11-20T02:42:40;15.50;99.90
10344;DHT22;5217;43.960;10.954;2022-11-20T02:45:09;15.50;99.90
10344;DHT22;5217;43.960;10.954;2022-11-20T02:47:37;15.40;99.90
10344;DHT22;5217;43.960;10.954;2022-11-20T02:50:07;15.40;99.90
10344;DHT22;5217;43.960;10.954;2022-11-20T02:52:35;15.40;99.90
10344;DHT22;5217;43.960;10.954;2022-11-20T02:55:05;15.40;99.90
10344;DHT22;5217;43.960;10.954;2022-11-20T02:57:35;15.40;99.90
10344;DHT22;5217;43.960;10.954;2022-11-20T03:00:05;15.40;99.90
10344;DHT22;5217;43.960;10.954;2022-11-20T03:02:34;15.40;99.90
10344;DHT22;5217;43.960;10.954;2022-11-20T03:05:03;15.30;99.90
10344;DHT22;5217;43.960;10.954;2022-11-20T03:07:32;15.30;99.90
10344;DHT22;5217;43.960;10.954;2022-11-20T03:10:01;15.30;99.90
10344;DHT22;5217;43.960;10.954;2022-11-20T03:12:29;15.30;99.90
10344;DHT22;5217;43.960;10.954;2022-11-20T03:15:00;15.30;99.90
10344;DHT22;5217;43.960;10.954;2022-11-20T03:17:28;15.30;99.90
10344;DHT22;5217;43.960;10.954;2022-11-20T03:19:57;15.30;99.90
10344;DHT22;5217;43.960;10.954;2022-11-20T03:22:28;15.20;99.90
10344;DHT22;5217;43.960;10.954;2022-11-20T03:24:57;15.20;99.90
10344;DHT22;5217;43.960;10.954;2022-11-20T03:27:25;15.20;99.90
10344;DHT22;5217;43.960;10.954;2022-11-20T03:29:54;15.20;99.90
10344;DHT22;5217;43.960;10.954;2022-11-20T03:32:24;15.20;99.90
10344;DHT22;5217;43.960;10.954;2022-11-20T03:34:52;15.20;99.90
10344;DHT22;5217;43.960;10.954;2022-11-20T03:37:21;15.10;99.90
10344;DHT22;5217;43.960;10.954;2022-11-20T03:39:49;15.10;99.90
10344;DHT22;5217;43.960;10.954;2022-11-20T03:42:18;15.10;99.90
10344;DHT22;5217;43.960;10.954;2022-11-20T03:45:05;15.10;99.90
10344;DHT22;5217;43.960;10.954;2022-11-20T03:47:34;15.10;99.90
10344;DHT22;5217;43.960;10.954;2022-11-20T03:50:03;15.00;99.90
10344;DHT22;5217;43.960;10.954;2022-11-20T03:52:32;15.00;99.90
10344;DHT22;5217;43.960;10.954;2022-11-20T03:55:01;15.00;99.90
10344;DHT22;5217;43.960;10.954;2022-11-20T03:57:29;15.00;99.90
10344;DHT22;5217;43.960;10.954;2022-11-20T03:59:57;14.90;99.90
10344;DHT22;5217;43.960;10.954;2022-11-20T04:02:26;15.00;99.90
10344;DHT22;5217;43.960;10.954;2022-11-20T04:04:55;14.90;99.90
10344;DHT22;5217;43.960;10.954;2022-11-20T04:07:24;14.90;99.90
10344;DHT22;5217;43.960;10.954;2022-11-20T04:09:52;14.90;99.90
10344;DHT22;5217;43.960;10.954;2022-11-20T04:12:20;14.90;99.90
10344;DHT22;5217;43.960;10.954;2022-11-20T04:14:49;14.90;99.90
10344;DHT22;5217;43.960;10.954;2022-11-20T04:17:17;14.80;99.90
10344;DHT22;5217;43.960;10.954;2022-11-20T04:19:46;14.80;99.90
10344;DHT22;5217;43.960;10.954;2022-11-20T04:22:16;14.80;99.90
10344;DHT22;5217;43.960;10.954;2022-11-20T04:24:44;14.80;99.90
10344;DHT22;5217;43.960;10.954;2022-11-20T04:27:12;14.80;99.90
10344;DHT22;5217;43.960;10.954;2022-11-20T04:29:41;14.80;99.90
10344;DHT22;5217;43.960;10.954;2022-11-20T04:32:09;14.80;99.90
10344;DHT22;5217;43.960;10.954;2022-11-20T04:34:38;14.80;99.90
10344;DHT22;5217;43.960;10.954;2022-11-20T04:37:06;14.80;99.90
10344;DHT22;5217;43.960;10.954;2022-11-20T04:39:36;14.80;99.90
10344;DHT22;5217;43.960;10.954;2022-11-20T04:42:04;14.80;99.90
10344;DHT22;5217;43.960;10.954;2022-11-20T04:44:50;14.70;99.90
10344;DHT22;5217;43.960;10.954;2022-11-20T04:47:18;14.70;99.90
10344;DHT22;5217;43.960;10.954;2022-11-20T04:49:47;14.70;99.90
10344;DHT22;5217;43.960;10.954;2022-11-20T04:52:15;14.70;99.90
10344;DHT22;5217;43.960;10.954;2022-11-20T04:54:45;14.70;99.90
10344;DHT22;5217;43.960;10.954;2022-11-20T04:57:14;14.70;99.90
10344;DHT22;5217;43.960;10.954;2022-11-20T04:59:43;14.70;99.90
10344;DHT22;5217;43.960;10.954;2022-11-20T05:02:12;14.70;99.90
10344;DHT22;5217;43.960;10.954;2022-11-20T05:04:40;14.70;99.90
10344;DHT22;5217;43.960;10.954;2022-11-20T05:07:08;14.70;99.90
10344;DHT22;5217;43.960;10.954;2022-11-20T05:09:36;14.70;99.90
10344;DHT22;5217;43.960;10.954;2022-11-20T05:12:07;14.70;99.90
10344;DHT22;5217;43.960;10.954;2022-11-20T05:14:35;14.60;99.90
10344;DHT22;5217;43.960;10.954;2022-11-20T05:17:04;14.60;99.90
10344;DHT22;5217;43.960;10.954;2022-11-20T05:19:32;14.60;99.90
10344;DHT22;5217;43.960;10.954;2022-11-20T05:22:01;14.60;99.90
10344;DHT22;5217;43.960;10.954;2022-11-20T05:24:29;14.60;99.90
10344;DHT22;5217;43.960;10.954;2022-11-20T05:26:57;14.50;99.90
10344;DHT22;5217;43.960;10.954;2022-11-20T05:29:27;14.50;99.90
10344;DHT22;5217;43.960;10.954;2022-11-20T05:31:55;14.50;99.90
10344;DHT22;5217;43.960;10.954;2022-11-20T05:34:24;14.50;99.90
10344;DHT22;5217;43.960;10.954;2022-11-20T05:36:52;14.50;99.90
10344;DHT22;5217;43.960;10.954;2022-11-20T05:39:20;14.50;99.90
10344;DHT22;5217;43.960;10.954;2022-11-20T05:41:49;14.50;99.90
10344;DHT22;5217;43.960;10.954;2022-11-20T05:44:40;14.40;99.90
10344;DHT22;5217;43.960;10.954;2022-11-20T05:47:08;14.50;99.90
10344;DHT22;5217;43.960;10.954;2022-11-20T05:49:36;14.40;99.90
10344;DHT22;5217;43.960;10.954;2022-11-20T05:52:05;14.40;99.90
10344;DHT22;5217;43.960;10.954;2022-11-20T05:54:33;14.40;99.90
10344;DHT22;5217;43.960;10.954;2022-11-20T05:57:01;14.40;99.90
10344;DHT22;5217;43.960;10.954;2022-11-20T05:59:30;14.30;99.90
10344;DHT22;5217;43.960;10.954;2022-11-20T06:01:59;14.30;99.90
10344;DHT22;5217;43.960;10.954;2022-11-20T06:04:28;14.30;99.90
10344;DHT22;5217;43.960;10.954;2022-11-20T06:06:56;14.30;99.90
10344;DHT22;5217;43.960;10.954;2022-11-20T06:09:24;14.30;99.90
10344;DHT22;5217;43.960;10.954;2022-11-20T06:11:53;14.30;99.90
10344;DHT22;5217;43.960;10.954;2022-11-20T06:14:21;14.30;99.90
10344;DHT22;5217;43.960;10.954;2022-11-20T06:16:49;14.30;99.90
10344;DHT22;5217;43.960;10.954;2022-11-20T06:19:19;14.30;99.90
10344;DHT22;5217;43.960;10.954;2022-11-20T06:21:48;14.30;99.90
10344;DHT22;5217;43.960;10.954;2022-11-20T06:24:17;14.20;99.90
10344;DHT22;5217;43.960;10.954;2022-11-20T06:26:45;14.20;99.90
10344;DHT22;5217;43.960;10.954;2022-11-20T06:29:14;14.30;99.90
10344;DHT22;5217;43.960;10.954;2022-11-20T06:31:42;14.30;99.90
10344;DHT22;5217;43.960;10.954;2022-11-20T06:34:11;14.30;99.90
10344;DHT22;5217;43.960;10.954;2022-11-20T06:36:41;14.30;99.90
10344;DHT22;5217;43.960;10.954;2022-11-20T06:39:09;14.30;99.90
10344;DHT22;5217;43.960;10.954;2022-11-20T06:41:38;14.30;99.90
10344;DHT22;5217;43.960;10.954;2022-11-20T06:44:06;14.30;99.90
10344;DHT22;5217;43.960;10.954;2022-11-20T06:46:34;14.30;99.90
10344;DHT22;5217;43.960;10.954;2022-11-20T06:49:03;14.30;99.90
10344;DHT22;5217;43.960;10.954;2022-11-20T06:51:31;14.30;99.90
10344;DHT22;5217;43.960;10.954;2022-11-20T06:54:01;14.30;99.90
10344;DHT22;5217;43.960;10.954;2022-11-20T06:56:30;14.30;99.90
10344;DHT22;5217;43.960;10.954;2022-11-20T06:58:58;14.30;99.90
10344;DHT22;5217;43.960;10.954;2022-11-20T07:01:26;14.30;99.90
10344;DHT22;5217;43.960;10.954;2022-11-20T07:03:55;14.30;99.90
10344;DHT22;5217;43.960;10.954;2022-11-20T07:06:23;14.30;99.90
10344;DHT22;5217;43.960;10.954;2022-11-20T07:08:51;14.30;99.90
10344;DHT22;5217;43.960;10.954;2022-11-20T07:11:21;14.30;99.90
10344;DHT22;5217;43.960;10.954;2022-11-20T07:13:50;14.30;99.90
10344;DHT22;5217;43.960;10.954;2022-11-20T07:16:18;14.30;99.90
10344;DHT22;5217;43.960;10.954;2022-11-20T07:18:47;14.30;99.90
10344;DHT22;5217;43.960;10.954;2022-11-20T07:21:17;14.30;99.90
10344;DHT22;5217;43.960;10.954;2022-11-20T07:23:45;14.30;99.90
10344;DHT22;5217;43.960;10.954;2022-11-20T07:26:14;14.30;99.90
10344;DHT22;5217;43.960;10.954;2022-11-20T07:28:45;14.30;99.90
10344;DHT22;5217;43.960;10.954;2022-11-20T07:31:14;14.20;99.90
10344;DHT22;5217;43.960;10.954;2022-11-20T07:33:45;14.20;99.90
10344;DHT22;5217;43.960;10.954;2022-11-20T07:36:13;14.20;99.90
10344;DHT22;5217;43.960;10.954;2022-11-20T07:38:42;14.20;99.90
10344;DHT22;5217;43.960;10.954;2022-11-20T07:41:10;14.20;99.90
10344;DHT22;5217;43.960;10.954;2022-11-20T07:43:39;14.10;99.90
10344;DHT22;5217;43.960;10.954;2022-11-20T07:46:09;14.20;99.90
10344;DHT22;5217;43.960;10.954;2022-11-20T07:48:37;14.10;99.90
10344;DHT22;5217;43.960;10.954;2022-11-20T07:51:05;14.10;99.90
10344;DHT22;5217;43.960;10.954;2022-11-20T07:53:34;14.10;99.90
10344;DHT22;5217;43.960;10.954;2022-11-20T07:56:03;14.10;99.90
10344;DHT22;5217;43.960;10.954;2022-11-20T07:58:31;14.20;99.90
10344;DHT22;5217;43.960;10.954;2022-11-20T08:01:04;14.10;99.90
10344;DHT22;5217;43.960;10.954;2022-11-20T08:03:35;14.10;99.90
10344;DHT22;5217;43.960;10.954;2022-11-20T08:06:05;14.20;99.90
10344;DHT22;5217;43.960;10.954;2022-11-20T08:08:33;14.30;99.90
10344;DHT22;5217;43.960;10.954;2022-11-20T08:11:08;14.30;99.90
10344;DHT22;5217;43.960;10.954;2022-11-20T08:13:54;14.40;99.90
10344;DHT22;5217;43.960;10.954;2022-11-20T08:16:41;14.50;99.90
10344;DHT22;5217;43.960;10.954;2022-11-20T08:19:11;14.50;99.90
10344;DHT22;5217;43.960;10.954;2022-11-20T08:21:40;14.60;99.90
10344;DHT22;5217;43.960;10.954;2022-11-20T08:24:09;14.60;99.90
10344;DHT22;5217;43.960;10.954;2022-11-20T08:26:39;14.60;99.90
10344;DHT22;5217;43.960;10.954;2022-11-20T08:29:07;14.70;99.90
10344;DHT22;5217;43.960;10.954;2022-11-20T08:31:36;14.70;99.90
10344;DHT22;5217;43.960;10.954;2022-11-20T08:34:04;14.70;99.90
10344;DHT22;5217;43.960;10.954;2022-11-20T08:36:37;14.80;99.90
10344;DHT22;5217;43.960;10.954;2022-11-20T08:39:05;14.80;99.90
10344;DHT22;5217;43.960;10.954;2022-11-20T08:41:33;14.80;99.90
10344;DHT22;5217;43.960;10.954;2022-11-20T08:44:05;14.90;99.90
10344;DHT22;5217;43.960;10.954;2022-11-20T08:46:35;14.90;99.90
10344;DHT22;5217;43.960;10.954;2022-11-20T08:49:05;15.00;99.90
10344;DHT22;5217;43.960;10.954;2022-11-20T08:51:34;15.00;99.90
10344;DHT22;5217;43.960;10.954;2022-11-20T08:54:04;15.10;99.90
10344;DHT22;5217;43.960;10.954;2022-11-20T08:56:33;15.10;99.90
10344;DHT22;5217;43.960;10.954;2022-11-20T08:59:02;15.20;99.90
10344;DHT22;5217;43.960;10.954;2022-11-20T09:01:50;15.20;99.90
10344;DHT22;5217;43.960;10.954;2022-11-20T09:04:18;15.30;99.90
10344;DHT22;5217;43.960;10.954;2022-11-20T09:06:47;15.30;99.90
10344;DHT22;5217;43.960;10.954;2022-11-20T09:09:19;15.40;99.90
10344;DHT22;5217;43.960;10.954;2022-11-20T09:11:48;15.40;99.90
10344;DHT22;5217;43.960;10.954;2022-11-20T09:14:17;15.40;99.90
10344;DHT22;5217;43.960;10.954;2022-11-20T09:16:46;15.50;99.90
10344;DHT22;5217;43.960;10.954;2022-11-20T09:19:14;15.60;99.90
10344;DHT22;5217;43.960;10.954;2022-11-20T09:22:03;15.60;99.90
10344;DHT22;5217;43.960;10.954;2022-11-20T09:24:32;15.60;99.90
10344;DHT22;5217;43.960;10.954;2022-11-20T09:27:04;15.70;99.90
10344;DHT22;5217;43.960;10.954;2022-11-20T09:29:33;15.70;99.90
10344;DHT22;5217;43.960;10.954;2022-11-20T09:32:01;15.70;99.90
10344;DHT22;5217;43.960;10.954;2022-11-20T09:34:29;15.80;99.90
10344;DHT22;5217;43.960;10.954;2022-11-20T09:36:58;15.80;99.90
10344;DHT22;5217;43.960;10.954;2022-11-20T09:39:33;15.80;99.90
10344;DHT22;5217;43.960;10.954;2022-11-20T09:42:27;15.80;99.90
10344;DHT22;5217;43.960;10.954;2022-11-20T09:45:16;15.90;99.90
10344;DHT22;5217;43.960;10.954;2022-11-20T09:48:02;15.90;99.90
10344;DHT22;5217;43.960;10.954;2022-11-20T09:50:33;16.00;99.90
10344;DHT22;5217;43.960;10.954;2022-11-20T09:53:19;16.00;99.90
10344;DHT22;5217;43.960;10.954;2022-11-20T09:55:50;16.10;99.90
10344;DHT22;5217;43.960;10.954;2022-11-20T09:58:27;16.10;99.90
10344;DHT22;5217;43.960;10.954;2022-11-20T10:01:08;16.20;99.90
10344;DHT22;5217;43.960;10.954;2022-11-20T10:03:46;16.20;99.90
10344;DHT22;5217;43.960;10.954;2022-11-20T10:06:18;16.30;99.90
10344;DHT22;5217;43.960;10.954;2022-11-20T10:08:58;16.30;99.90
10344;DHT22;5217;43.960;10.954;2022-11-20T10:11:36;16.40;99.90
10344;DHT22;5217;43.960;10.954;2022-11-20T10:14:16;16.40;99.90
10344;DHT22;5217;43.960;10.954;2022-11-20T10:16:53;16.40;99.90
10344;DHT22;5217;43.960;10.954;2022-11-20T10:19:41;16.40;99.20
10344;DHT22;5217;43.960;10.954;2022-11-20T10:22:23;16.50;99.50
10344;DHT22;5217;43.960;10.954;2022-11-20T10:24:58;16.50;99.50
10344;DHT22;5217;43.960;10.954;2022-11-20T10:30:30;16.60;98.60
10344;DHT22;5217;43.960;10.954;2022-11-20T10:33:05;16.60;97.80
10344;DHT22;5217;43.960;10.954;2022-11-20T10:35:40;16.60;98.30
10344;DHT22;5217;43.960;10.954;2022-11-20T10:38:17;16.70;98.20
10344;DHT22;5217;43.960;10.954;2022-11-20T10:40:50;16.70;98.40
10344;DHT22;5217;43.960;10.954;2022-11-20T10:43:24;16.80;98.00
10344;DHT22;5217;43.960;10.954;2022-11-20T10:46:00;16.90;98.20
10344;DHT22;5217;43.960;10.954;2022-11-20T10:48:31;17.00;98.40
10344;DHT22;5217;43.960;10.954;2022-11-20T10:51:15;17.00;98.40
10344;DHT22;5217;43.960;10.954;2022-11-20T10:53:54;17.10;98.40
10344;DHT22;5217;43.960;10.954;2022-11-20T10:56:30;17.20;98.40
10344;DHT22;5217;43.960;10.954;2022-11-20T10:59:14;17.20;98.30
10344;DHT22;5217;43.960;10.954;2022-11-20T11:01:53;17.30;98.30
10344;DHT22;5217;43.960;10.954;2022-11-20T11:04:32;17.30;98.10
10344;DHT22;5217;43.960;10.954;2022-11-20T11:07:07;17.40;98.20
10344;DHT22;5217;43.960;10.954;2022-11-20T11:09:42;17.50;98.30
10344;DHT22;5217;43.960;10.954;2022-11-20T11:12:11;17.50;98.10
10344;DHT22;5217;43.960;10.954;2022-11-20T11:14:45;17.60;97.80
10344;DHT22;5217;43.960;10.954;2022-11-20T11:17:45;17.60;97.80
10344;DHT22;5217;43.960;10.954;2022-11-20T11:20:18;17.70;97.60
10344;DHT22;5217;43.960;10.954;2022-11-20T11:22:49;17.70;97.50
10344;DHT22;5217;43.960;10.954;2022-11-20T11:25:27;17.80;97.30
10344;DHT22;5217;43.960;10.954;2022-11-20T11:28:02;17.80;97.20
10344;DHT22;5217;43.960;10.954;2022-11-20T11:30:42;17.90;97.30
10344;DHT22;5217;43.960;10.954;2022-11-20T11:33:19;17.90;96.70
10344;DHT22;5217;43.960;10.954;2022-11-20T11:35:49;18.00;96.70
10344;DHT22;5217;43.960;10.954;2022-11-20T11:38:22;18.00;96.70
10344;DHT22;5217;43.960;10.954;2022-11-20T11:40:55;18.10;96.60
10344;DHT22;5217;43.960;10.954;2022-11-20T11:43:25;18.20;96.20
10344;DHT22;5217;43.960;10.954;2022-11-20T11:46:28;18.20;96.20
10344;DHT22;5217;43.960;10.954;2022-11-20T11:49:00;18.20;96.40
10344;DHT22;5217;43.960;10.954;2022-11-20T11:51:34;18.30;96.40
10344;DHT22;5217;43.960;10.954;2022-11-20T11:54:12;18.30;96.40
10344;DHT22;5217;43.960;10.954;2022-11-20T11:56:43;18.40;96.40
10344;DHT22;5217;43.960;10.954;2022-11-20T11:59:15;18.40;96.20
10344;DHT22;5217;43.960;10.954;2022-11-20T12:01:50;18.40;96.10
10344;DHT22;5217;43.960;10.954;2022-11-20T12:04:30;18.50;95.90
10344;DHT22;5217;43.960;10.954;2022-11-20T12:07:11;18.50;95.70
10344;DHT22;5217;43.960;10.954;2022-11-20T12:10:02;18.60;95.70
10344;DHT22;5217;43.960;10.954;2022-11-20T12:12:36;18.60;95.50
10344;DHT22;5217;43.960;10.954;2022-11-20T12:15:10;18.60;95.30
10344;DHT22;5217;43.960;10.954;2022-11-20T12:17:40;18.70;94.80
10344;DHT22;5217;43.960;10.954;2022-11-20T12:20:14;18.70;94.50
10344;DHT22;5217;43.960;10.954;2022-11-20T12:22:48;18.80;94.10
10344;DHT22;5217;43.960;10.954;2022-11-20T12:25:22;18.80;94.00
10344;DHT22;5217;43.960;10.954;2022-11-20T12:31:11;18.90;93.50
10344;DHT22;5217;43.960;10.954;2022-11-20T12:33:52;18.90;93.20
10344;DHT22;5217;43.960;10.954;2022-11-20T12:36:32;19.00;93.20
10344;DHT22;5217;43.960;10.954;2022-11-20T12:39:17;19.00;92.80
10344;DHT22;5217;43.960;10.954;2022-11-20T12:45:10;19.00;92.20
10344;DHT22;5217;43.960;10.954;2022-11-20T12:47:54;19.10;92.30
10344;DHT22;5217;43.960;10.954;2022-11-20T12:50:32;19.10;92.30
10344;DHT22;5217;43.960;10.954;2022-11-20T12:53:33;19.20;92.20
10344;DHT22;5217;43.960;10.954;2022-11-20T12:56:14;19.20;92.10
10344;DHT22;5217;43.960;10.954;2022-11-20T12:58:56;19.20;92.10
10344;DHT22;5217;43.960;10.954;2022-11-20T13:01:36;19.20;92.10
10344;DHT22;5217;43.960;10.954;2022-11-20T13:04:24;19.30;92.00
10344;DHT22;5217;43.960;10.954;2022-11-20T13:07:02;19.30;92.00
10344;DHT22;5217;43.960;10.954;2022-11-20T13:09:33;19.30;91.60
10344;DHT22;5217;43.960;10.954;2022-11-20T13:12:07;19.40;91.00
10344;DHT22;5217;43.960;10.954;2022-11-20T13:14:41;19.40;90.50
10344;DHT22;5217;43.960;10.954;2022-11-20T13:17:14;19.40;90.30
10344;DHT22;5217;43.960;10.954;2022-11-20T13:19:48;19.40;90.00
10344;DHT22;5217;43.960;10.954;2022-11-20T13:22:24;19.50;89.90
10344;DHT22;5217;43.960;10.954;2022-11-20T13:24:55;19.50;89.50
10344;DHT22;5217;43.960;10.954;2022-11-20T13:27:24;19.50;89.10
10344;DHT22;5217;43.960;10.954;2022-11-20T13:30:13;19.50;88.80
10344;DHT22;5217;43.960;10.954;2022-11-20T13:32:52;19.50;89.20
10344;DHT22;5217;43.960;10.954;2022-11-20T13:35:27;19.50;88.70
10344;DHT22;5217;43.960;10.954;2022-11-20T13:38:05;19.60;88.50
10344;DHT22;5217;43.960;10.954;2022-11-20T13:40:36;19.60;88.20
10344;DHT22;5217;43.960;10.954;2022-11-20T13:43:18;19.50;87.10
10344;DHT22;5217;43.960;10.954;2022-11-20T13:45:58;19.50;87.00
10344;DHT22;5217;43.960;10.954;2022-11-20T13:48:30;19.50;86.30
10344;DHT22;5217;43.960;10.954;2022-11-20T13:51:11;19.60;85.90
10344;DHT22;5217;43.960;10.954;2022-11-20T13:54:05;19.60;85.30
10344;DHT22;5217;43.960;10.954;2022-11-20T13:56:55;19.60;84.70
10344;DHT22;5217;43.960;10.954;2022-11-20T13:59:37;19.60;84.90
10344;DHT22;5217;43.960;10.954;2022-11-20T14:02:11;19.60;85.00
10344;DHT22;5217;43.960;10.954;2022-11-20T14:04:45;19.50;85.10
10344;DHT22;5217;43.960;10.954;2022-11-20T14:07:14;19.50;85.20
10344;DHT22;5217;43.960;10.954;2022-11-20T14:09:50;19.50;84.70
10344;DHT22;5217;43.960;10.954;2022-11-20T14:12:23;19.50;84.00
10344;DHT22;5217;43.960;10.954;2022-11-20T14:14:53;19.40;83.90
10344;DHT22;5217;43.960;10.954;2022-11-20T14:17:23;19.40;85.60
10344;DHT22;5217;43.960;10.954;2022-11-20T14:19:54;19.40;86.90
10344;DHT22;5217;43.960;10.954;2022-11-20T14:22:25;19.30;87.40
10344;DHT22;5217;43.960;10.954;2022-11-20T14:25:03;19.40;87.70
10344;DHT22;5217;43.960;10.954;2022-11-20T14:27:37;19.30;87.80
10344;DHT22;5217;43.960;10.954;2022-11-20T14:30:11;19.30;88.90
10344;DHT22;5217;43.960;10.954;2022-11-20T14:32:42;19.30;90.30
10344;DHT22;5217;43.960;10.954;2022-11-20T14:35:16;19.30;90.50
10344;DHT22;5217;43.960;10.954;2022-11-20T14:37:46;19.30;90.90
10344;DHT22;5217;43.960;10.954;2022-11-20T14:40:27;19.20;91.20
10344;DHT22;5217;43.960;10.954;2022-11-20T14:42:58;19.20;91.10
10344;DHT22;5217;43.960;10.954;2022-11-20T14:45:27;19.20;90.90
10344;DHT22;5217;43.960;10.954;2022-11-20T14:47:57;19.10;90.70
10344;DHT22;5217;43.960;10.954;2022-11-20T14:50:27;19.10;90.90
10344;DHT22;5217;43.960;10.954;2022-11-20T14:52:57;19.10;91.20
10344;DHT22;5217;43.960;10.954;2022-11-20T14:55:27;19.10;91.60
10344;DHT22;5217;43.960;10.954;2022-11-20T14:57:59;19.00;92.20
10344;DHT22;5217;43.960;10.954;2022-11-20T15:00:29;19.00;92.80
10344;DHT22;5217;43.960;10.954;2022-11-20T15:02:58;19.00;93.20
10344;DHT22;5217;43.960;10.954;2022-11-20T15:05:45;18.90;93.40
10344;DHT22;5217;43.960;10.954;2022-11-20T15:08:15;18.90;93.90
10344;DHT22;5217;43.960;10.954;2022-11-20T15:10:48;18.90;94.10
10344;DHT22;5217;43.960;10.954;2022-11-20T15:13:24;18.90;94.20
10344;DHT22;5217;43.960;10.954;2022-11-20T15:15:54;18.90;94.20
10344;DHT22;5217;43.960;10.954;2022-11-20T15:18:26;18.80;94.10
10344;DHT22;5217;43.960;10.954;2022-11-20T15:20:56;18.80;94.00
10344;DHT22;5217;43.960;10.954;2022-11-20T15:23:26;18.80;93.80
10344;DHT22;5217;43.960;10.954;2022-11-20T15:25:55;18.70;93.80
10344;DHT22;5217;43.960;10.954;2022-11-20T15:28:29;18.80;93.80
10344;DHT22;5217;43.960;10.954;2022-11-20T15:30:58;18.70;94.00
10344;DHT22;5217;43.960;10.954;2022-11-20T15:33:27;18.60;94.20
10344;DHT22;5217;43.960;10.954;2022-11-20T15:35:55;18.70;94.20
10344;DHT22;5217;43.960;10.954;2022-11-20T15:38:24;18.60;94.10
10344;DHT22;5217;43.960;10.954;2022-11-20T15:40:52;18.60;94.30
10344;DHT22;5217;43.960;10.954;2022-11-20T15:43:21;18.50;94.50
10344;DHT22;5217;43.960;10.954;2022-11-20T15:45:53;18.50;94.70
10344;DHT22;5217;43.960;10.954;2022-11-20T15:48:24;18.50;94.70
10344;DHT22;5217;43.960;10.954;2022-11-20T15:50:58;18.40;94.80
10344;DHT22;5217;43.960;10.954;2022-11-20T15:53:27;18.40;94.70
10344;DHT22;5217;43.960;10.954;2022-11-20T15:55:55;18.40;94.80
10344;DHT22;5217;43.960;10.954;2022-11-20T15:58:24;18.30;94.90
10344;DHT22;5217;43.960;10.954;2022-11-20T16:00:55;18.30;94.90
10344;DHT22;5217;43.960;10.954;2022-11-20T16:03:23;18.20;94.90
10344;DHT22;5217;43.960;10.954;2022-11-20T16:05:52;18.20;95.00
10344;DHT22;5217;43.960;10.954;2022-11-20T16:08:20;18.20;95.10
10344;DHT22;5217;43.960;10.954;2022-11-20T16:10:49;18.20;95.10